History for KNYNEWYO912

The Dog, New York City, NY — Current Conditions
Daily Summary for September 21, 2018
  Current: High: Low: Average:
Temperature: 68.8°F 68.8°F 64.4°F 66.6°F
Dew Point: 58.0°F 58.0°F 53.0°F 54.8°F
Humidity: 68% 69% 64% 67%
Wind Speed: 7.0mph 21.0mph - 9.5mph
Wind Gust: 18.0mph 24.0mph - -
Wind: South - - SE
Pressure: 30.20in 30.36in 30.20in -
Precipitation: 0.00in      
Statistics for the rest of the month
    High: Low: Average:
Temperature:   91.1°F 52.4°F 71.2°F
Dew Point:   74.0°F 42.0°F 60.8°F
Humidity:   88.0% 38.0% 71.8%
Wind Speed:   21.0mph from the SSE - 4.9mph
Wind Gust:   34.0mph from the SSW - -
Wind:   - - SE
Pressure:   30.42in 29.82in -
Precipitation:   4.33in    
KNYNEWYO912 Weather Graph
Tabular Data for September 21, 2018
Time Temp. Dew Point Pressure Wind Gust Humidity Rainfall
00:00 64.4°F 54°F 30.34in 18mph 69% 0in
00:15 64.6°F 54°F 30.36in 16mph 68% 0in
00:30 64.7°F 54°F 30.35in 17mph 68% 0in
00:45 64.8°F 54°F 30.35in 15mph 67% 0in
01:00 64.7°F 53°F 30.35in 14mph 67% 0in
01:15 64.8°F 54°F 30.34in 14mph 67% 0in
01:30 64.9°F 54°F 30.34in 17mph 67% 0in
01:45 65°F 54°F 30.34in 14mph 67% 0in
02:00 65.1°F 53°F 30.34in 12mph 66% 0in
02:15 65.1°F 53°F 30.33in 17mph 66% 0in
02:30 65.2°F 54°F 30.33in 16mph 67% 0in
02:45 65.3°F 54°F 30.33in 11mph 66% 0in
03:00 65.3°F 54°F 30.32in 17mph 66% 0in
03:15 65°F 54°F 30.33in 17mph 67% 0in
03:30 64.9°F 54°F 30.33in 17mph 67% 0in
03:45 65.1°F 54°F 30.32in 16mph 67% 0in
04:00 65.1°F 54°F 30.33in 16mph 67% 0in
04:15 65°F 54°F 30.32in 15mph 67% 0in
04:30 65°F 54°F 30.34in 17mph 67% 0in
04:45 65°F 54°F 30.34in 18mph 67% 0in
05:00 65.2°F 54°F 30.33in 18mph 67% 0in
05:15 65.4°F 54°F 30.34in 16mph 67% 0in
05:30 65.5°F 54°F 30.34in 16mph 66% 0in
05:45 65.6°F 54°F 30.34in 16mph 66% 0in
06:00 65.6°F 54°F 30.34in 16mph 66% 0in
06:15 65.7°F 54°F 30.34in 16mph 67% 0in
06:30 65.4°F 55°F 30.35in 20mph 68% 0in
06:45 65.4°F 55°F 30.34in 22mph 68% 0in
07:00 65.3°F 54°F 30.35in 21mph 67% 0in
07:15 65.4°F 54°F 30.34in 20mph 67% 0in
07:30 65.6°F 54°F 30.35in 21mph 66% 0in
07:45 65.5°F 54°F 30.35in 21mph 67% 0in
08:00 65.7°F 54°F 30.35in 19mph 66% 0in
08:15 66.1°F 54°F 30.34in 15mph 66% 0in
08:30 65.7°F 54°F 30.34in 19mph 66% 0in
08:45 66.3°F 54°F 30.34in 15mph 65% 0in
09:00 66°F 55°F 30.34in 19mph 67% 0in
09:15 66.3°F 55°F 30.34in 19mph 66% 0in
09:30 66.1°F 55°F 30.33in 18mph 67% 0in
09:45 66.1°F 55°F 30.33in 21mph 67% 0in
10:00 66.3°F 55°F 30.34in 20mph 67% 0in
10:15 66.2°F 54°F 30.33in 21mph 66% 0in
10:30 66.7°F 55°F 30.33in 18mph 66% 0in
10:45 66.4°F 55°F 30.32in 19mph 66% 0in
11:00 66.8°F 55°F 30.32in 18mph 66% 0in
11:15 66.8°F 55°F 30.32in 21mph 66% 0in
11:30 67.4°F 56°F 30.31in 14mph 66% 0in
11:45 67°F 55°F 30.30in 24mph 66% 0in
12:00 67°F 55°F 30.29in 21mph 66% 0in
12:15 67.4°F 55°F 30.29in 20mph 64% 0in
12:30 67.2°F 55°F 30.29in 22mph 65% 0in
12:45 67.3°F 55°F 30.28in 21mph 65% 0in
13:00 67.3°F 55°F 30.28in 20mph 66% 0in
13:15 67.7°F 55°F 30.27in 19mph 65% 0in
13:30 67.4°F 56°F 30.27in 20mph 67% 0in
13:45 67.9°F 56°F 30.26in 20mph 67% 0in
14:00 67.5°F 57°F 30.25in 22mph 68% 0in
14:15 67.6°F 57°F 30.25in 22mph 68% 0in
14:30 68°F 57°F 30.23in 19mph 68% 0in
14:45 67.6°F 57°F 30.23in 24mph 68% 0in
15:00 68.3°F 57°F 30.23in 17mph 68% 0in
15:15 68.2°F 57°F 30.21in 22mph 68% 0in
15:30 68.5°F 57°F 30.21in 20mph 68% 0in
15:45 68.4°F 58°F 30.20in 21mph 69% 0in
16:00 68.8°F 58°F 30.20in 18mph 68% 0in
Comma Delimited File
Powered by Weather Underground, Inc.